Latest Weather Observations for King Island Airport

IDT60801

Issued at 8:31 pm EST Monday 31 August 2015 (issued every 30 minutes, with the page automatically refreshed every 10 minutes)

About weather observations | Map of weather stations | Latest weather observations for TAS | Other Formats
Station Details ID: 098017 Name: KING ISLAND AIRPORT Lat: -39.88 Lon: 143.88 Height: 37.0 m
Data from the previous 72 hours. | See also: Recent months at King Island Airport
Date/Time
EST
Temp
°C
App
Temp
°C
Dew
Point
Rel
Hum
%
Delta-T
°C
Wind Press
QNH
hPa
Press
MSL
hPa
Rain
since 9 am
mm
Dir
 
Spd
km/h
Gust
km/h
Spd
kts
Gust
kts
31/08:30pm 8.1 6.8 3.9 75 1.8 CALM 0 0 0 0 1019.3 1019.3 0.0
31/08:00pm 8.5 7.1 3.8 72 2.0 CALM 0 0 0 0 1019.3 1019.3 0.0
31/07:30pm 8.5 6.7 3.4 70 2.2 NW 2 7 1 4 1019.2 1019.2 0.0
31/07:00pm 8.7 6.1 3.1 68 2.4 W 6 13 3 7 1019.1 1019.1 0.0
31/06:30pm 8.9 5.1 3.9 71 2.2 SSW 13 17 7 9 1019.0 1019.0 0.0
31/06:00pm 9.0 6.0 4.0 71 2.2 SW 9 13 5 7 1019.0 1019.0 0.0
31/05:30pm 9.5 7.0 4.5 71 2.2 NW 7 13 4 7 1019.2 1019.2 0.0
31/05:00pm 9.6 5.9 4.6 71 2.2 W 13 17 7 9 1019.4 1019.4 0.0
31/04:30pm 9.7 5.7 4.7 71 2.2 W 15 19 8 10 1019.5 1019.5 0.0
31/04:00pm 10.9 6.4 4.4 64 2.9 W 17 22 9 12 1019.4 1019.4 0.0
31/03:30pm 11.3 7.4 5.2 66 2.8 W 15 22 8 12 1019.5 1019.5 0.0
31/03:00pm 11.1 6.7 4.6 64 2.9 W 17 24 9 13 1019.6 1019.6 0.0
31/02:30pm 11.1 7.0 4.6 64 2.9 WSW 15 20 8 11 1019.7 1019.7 0.0
31/02:00pm 11.3 6.6 5.0 65 2.9 WSW 19 24 10 13 1019.8 1019.8 0.0
31/01:30pm 11.5 6.9 5.6 67 2.7 WSW 19 26 10 14 1020.0 1020.0 0.0
31/01:00pm 11.0 6.2 5.5 69 2.5 W 20 26 11 14 1020.4 1020.4 0.0
31/12:30pm 11.2 6.7 4.4 63 3.1 W 17 24 9 13 1020.6 1020.6 0.0
31/12:00pm 11.0 6.8 4.0 62 3.1 W 15 19 8 10 1021.0 1021.0 0.0
31/11:30am 10.8 6.6 3.8 62 3.1 W 15 19 8 10 1021.4 1021.4 0.0
31/11:00am 10.4 7.1 4.3 66 2.7 W 11 15 6 8 1021.4 1021.4 0.0
31/10:30am 10.2 6.5 4.4 67 2.6 WSW 13 17 7 9 1021.6 1021.6 0.0
31/10:00am 9.8 6.5 4.6 70 2.3 WSW 11 15 6 8 1021.9 1021.9 0.0
31/09:30am 10.0 7.1 6.3 78 1.7 SSW 11 17 6 9 1021.8 1021.8 0.0
31/09:00am 9.7 8.0 8.3 91 0.7 SSE 7 9 4 5 1021.8 1021.8 0.2
31/08:30am 8.0 7.4 7.4 96 0.3 CALM 0 0 0 0 1021.8 1021.8 0.2
31/08:00am 4.8 3.5 4.2 96 0.3 CALM 0 0 0 0 1021.7 1021.7 0.2
31/07:30am 3.1 1.5 2.5 96 0.2 CALM 0 0 0 0 1021.5 1021.5 0.2
31/07:00am 3.0 1.4 2.3 95 0.3 CALM 0 0 0 0 1021.3 1021.3 0.2
31/06:30am 3.0 1.4 2.3 95 0.3 CALM 0 0 0 0 1021.3 1021.3 0.0
31/06:00am 2.7 1.0 2.0 95 0.3 CALM 0 0 0 0 1021.2 1021.2 0.0
31/05:30am 2.7 1.0 2.0 95 0.3 CALM 0 0 0 0 1021.3 1021.3 0.0
31/05:00am 2.5 0.7 1.5 93 0.4 CALM 0 0 0 0 1021.3 1021.3 0.0
31/04:30am 2.4 0.6 1.4 93 0.4 CALM 0 0 0 0 1021.2 1021.2 0.0
31/04:00am 2.4 0.6 1.2 92 0.5 CALM 0 0 0 0 1021.2 1021.2 0.0
31/03:30am 2.7 0.9 1.5 92 0.5 CALM 0 0 0 0 1021.5 1021.5 0.0
31/03:00am 2.4 0.6 0.9 90 0.6 CALM 0 0 0 0 1021.7 1021.7 0.0
31/02:30am 4.0 1.3 2.7 91 0.5 S 6 7 3 4 1022.0 1022.0 0.0
31/02:00am 3.5 0.5 2.0 90 0.6 SSE 7 9 4 5 1022.1 1022.1 0.0
31/01:30am 5.2 1.7 3.7 90 0.6 S 11 13 6 7 1022.3 1022.3 0.0
31/01:00am 5.1 1.6 3.6 90 0.6 SSE 11 15 6 8 1022.6 1022.6 0.0
31/12:30am 5.1 2.0 3.4 89 0.7 SSE 9 13 5 7 1022.8 1022.8 0.0
31/12:00am 5.4 2.7 3.9 90 0.6 S 7 11 4 6 1023.1 1023.1 0.0
 
Date/Time
EST
Temp
°C
App
Temp
°C
Dew
Point
Rel
Hum
%
Delta-T
°C
Wind Press
QNH
hPa
Press
MSL
hPa
Rain
since 9 am
mm
Dir
 
Spd
km/h
Gust
km/h
Spd
kts
Gust
kts
30/11:30pm 5.5 2.5 4.0 90 0.6 S 9 11 5 6 1023.2 1023.2 0.0
30/11:00pm 6.1 3.2 4.6 90 0.6 S 9 13 5 7 1023.5 1023.5 0.0
30/10:30pm 5.9 2.6 4.5 91 0.6 SSE 11 13 6 7 1023.8 1023.8 0.0
30/10:00pm 5.5 2.9 4.2 91 0.5 SSE 7 9 4 5 1024.0 1024.0 0.0
30/09:30pm 5.6 2.6 4.2 91 0.6 SE 9 11 5 6 1024.0 1024.0 0.0
30/09:00pm 6.3 3.8 4.9 91 0.6 SSE 7 9 4 5 1024.1 1024.1 0.0
30/08:30pm 7.3 5.1 6.1 92 0.5 S 7 9 4 5 1024.1 1024.1 0.0
30/08:00pm 7.6 5.1 6.4 92 0.5 S 9 13 5 7 1023.8 1023.8 0.0
30/07:30pm 7.8 4.1 6.4 91 0.6 SSW 15 19 8 10 1023.7 1023.7 0.0
30/07:00pm 7.8 4.5 6.3 90 0.7 S 13 19 7 10 1023.5 1023.5 0.0
30/06:30pm 8.4 4.7 6.2 86 1.0 S 15 26 8 14 1023.5 1023.5 0.0
30/06:00pm 9.3 5.5 6.0 80 1.5 S 15 24 8 13 1023.2 1023.2 0.0
30/05:30pm 9.4 4.6 5.4 76 1.8 S 20 37 11 20 1023.1 1023.1 0.0
30/05:00pm 9.5 4.4 4.1 69 2.4 S 20 33 11 18 1023.2 1023.2 0.0
30/04:30pm 10.4 4.5 5.8 73 2.1 SSW 26 35 14 19 1023.2 1023.2 0.0
30/04:00pm 10.6 5.3 5.2 69 2.5 S 22 32 12 17 1023.4 1023.4 0.0
30/03:30pm 10.6 5.4 5.6 71 2.3 S 22 35 12 19 1023.5 1023.5 0.0
30/03:00pm 10.5 5.6 5.3 70 2.4 S 20 30 11 16 1023.6 1023.6 0.0
30/02:30pm 11.2 4.6 4.4 63 3.1 SSW 28 39 15 21 1023.7 1023.7 0.0
30/02:00pm 10.9 4.3 4.1 63 3.0 SSW 28 37 15 20 1023.8 1023.8 0.0
30/01:30pm 11.6 5.2 5.3 65 2.9 SSW 28 35 15 19 1024.1 1024.1 0.0
30/01:00pm 10.7 4.9 4.6 66 2.7 SSW 24 35 13 19 1024.4 1024.4 0.0
30/12:30pm 9.8 4.4 4.6 70 2.3 S 22 32 12 17 1024.7 1024.8 0.0
30/12:00pm 9.9 4.6 5.1 72 2.2 S 22 32 12 17 1025.3 1025.4 0.0
30/11:30am 9.5 4.0 5.7 77 1.7 SSW 24 33 13 18 1025.5 1025.6 0.0
30/11:00am 9.1 3.7 6.4 83 1.2 S 24 35 13 19 1025.8 1025.9 0.0
30/10:30am 10.4 5.8 6.4 76 1.9 S 20 28 11 15 1025.8 1025.9 0.0
30/10:00am 9.5 4.6 4.3 70 2.3 S 19 30 10 16 1026.0 1026.1 0.0
30/09:30am 10.0 4.6 4.6 69 2.4 SSE 22 33 12 18 1026.1 1026.2 0.0
30/09:00am 10.3 5.6 5.1 70 2.3 S 19 33 10 18 1026.2 1026.3 0.2
30/08:30am 9.9 5.1 5.5 74 2.0 S 20 32 11 17 1026.1 1026.2 0.2
30/08:00am 9.1 4.4 5.1 76 1.8 S 19 30 10 16 1026.1 1026.2 0.2
30/07:30am 8.3 3.9 4.9 79 1.5 S 17 26 9 14 1025.9 1026.0 0.2
30/07:00am 8.1 3.7 4.9 80 1.4 S 17 28 9 15 1025.6 1025.7 0.2
30/06:30am 8.0 3.2 4.8 80 1.4 S 19 30 10 16 1025.6 1025.7 0.2
30/06:00am 8.4 4.5 5.3 81 1.4 S 15 22 8 12 1025.3 1025.4 0.2
30/05:30am 8.5 4.6 5.3 80 1.4 S 15 20 8 11 1025.2 1025.3 0.2
30/05:00am 8.4 4.8 5.2 80 1.4 SSE 13 22 7 12 1025.0 1025.1 0.2
30/04:30am 8.5 4.6 5.3 80 1.4 S 15 26 8 14 1024.9 1025.0 0.2
30/04:00am 8.7 4.8 5.3 79 1.5 S 15 26 8 14 1024.8 1024.9 0.2
30/03:30am 8.6 4.2 5.0 78 1.6 S 17 26 9 14 1024.8 1024.9 0.2
30/03:00am 8.4 3.6 4.8 78 1.6 S 19 32 10 17 1025.0 1025.1 0.2
30/02:30am 8.7 3.7 4.7 76 1.8 S 20 35 11 19 1025.3 1025.4 0.2
30/02:00am 8.9 4.0 5.1 77 1.7 S 20 32 11 17 1025.5 1025.6 0.2
30/01:30am 8.5 2.8 4.9 78 1.6 S 24 35 13 19 1025.7 1025.8 0.2
30/01:00am 8.4 3.5 5.0 79 1.5 S 20 30 11 16 1025.6 1025.7 0.2
30/12:30am 8.8 3.1 5.0 77 1.7 S 24 35 13 19 1025.8 1025.9 0.2
30/12:00am 8.8 3.4 4.6 75 1.8 S 22 37 12 20 1026.0 1026.1 0.2
 
Date/Time
EST
Temp
°C
App
Temp
°C
Dew
Point
Rel
Hum
%
Delta-T
°C
Wind Press
QNH
hPa
Press
MSL
hPa
Rain
since 9 am
mm
Dir
 
Spd
km/h
Gust
km/h
Spd
kts
Gust
kts
29/11:30pm 9.2 4.3 5.2 76 1.8 S 20 33 11 18 1026.3 1026.4 0.2
29/11:00pm 9.1 4.2 4.9 75 1.9 S 20 32 11 17 1026.4 1026.5 0.2
29/10:30pm 9.3 4.0 5.1 75 1.9 S 22 35 12 19 1026.6 1026.7 0.2
29/10:00pm 9.2 3.6 5.2 76 1.8 S 24 39 13 21 1026.6 1026.7 0.2
29/09:38pm 9.5 3.2 5.7 77 1.7 S 28 46 15 25 1026.6 1026.7 0.2
29/09:30pm 9.5 3.5 5.3 75 1.9 S 26 39 14 21 1026.6 1026.7 0.2
29/09:00pm 9.3 2.6 5.5 77 1.7 S 30 46 16 25 1026.6 1026.7 0.2
29/08:30pm 9.5 3.2 5.5 76 1.8 S 28 48 15 26 1026.3 1026.4 0.2
29/08:24pm 9.4 3.1 5.6 77 1.7 S 28 48 15 26 1026.3 1026.4 0.2
29/08:00pm 9.6 3.3 5.8 77 1.7 S 28 39 15 21 1026.3 1026.4 0.2
29/07:31pm 9.6 3.3 5.8 77 1.7 SSW 28 48 15 26 1026.3 1026.4 0.2
29/07:30pm 9.6 3.3 5.8 77 1.7 SSW 28 43 15 23 1026.3 1026.4 0.2
29/07:00pm 9.5 2.4 5.3 75 1.9 S 32 50 17 27 1026.3 1026.4 0.2
29/06:53pm 9.5 2.8 5.5 76 1.8 S 30 50 16 27 1026.3 1026.4 0.2
29/06:30pm 9.6 5.0 6.5 81 1.4 S 20 35 11 19 1026.3 1026.4 0.2
29/06:00pm 9.3 4.0 6.9 85 1.1 S 24 39 13 21 1026.0 1026.1 0.2
29/05:30pm 9.3 3.3 7.1 86 1.0 SSW 28 41 15 22 1025.9 1026.0 0.2
29/05:04pm 9.3 3.3 7.1 86 1.0 SSW 28 52 15 28 1025.8 1025.9 0.2
29/05:00pm 9.2 3.2 7.0 86 1.0 SSW 28 41 15 22 1025.8 1025.9 0.2
29/04:30pm 10.0 3.8 6.3 78 1.7 SSW 28 39 15 21 1025.7 1025.8 0.2
29/04:00pm 9.8 3.0 7.1 83 1.3 SSW 32 52 17 28 1025.6 1025.7 0.2
29/03:30pm 10.8 3.2 7.5 80 1.6 SSW 37 56 20 30 1025.6 1025.7 0.2
29/03:22pm 11.4 4.6 7.7 78 1.8 SSW 33 52 18 28 1025.6 1025.7 0.2
29/03:00pm 11.4 3.4 7.5 77 1.9 SSW 39 52 21 28 1025.6 1025.7 0.2
29/02:30pm 10.3 2.7 7.4 82 1.4 SSW 37 59 20 32 1025.4 1025.5 0.2
29/02:25pm 11.2 3.7 7.9 80 1.6 SSW 37 59 20 32 1025.3 1025.4 0.2
29/02:00pm 11.5 4.8 8.0 79 1.7 SSW 33 43 18 23 1025.6 1025.7 0.2
29/01:36pm 11.5 4.1 8.4 81 1.5 SSW 37 56 20 30 1025.7 1025.8 0.2
29/01:30pm 11.1 3.6 8.0 81 1.5 SSW 37 50 20 27 1025.8 1025.9 0.2
29/01:06pm 10.8 4.1 7.3 79 1.7 SSW 32 50 17 27 1025.9 1026.0 0.2
29/01:00pm 11.0 5.1 7.3 78 1.8 S 28 44 15 24 1026.0 1026.1 0.2
29/12:31pm 11.1 3.6 7.8 80 1.6 SSW 37 57 20 31 1026.3 1026.4 0.2
29/12:30pm 10.7 3.1 7.4 80 1.6 SSW 37 52 20 28 1026.3 1026.4 0.2
29/12:05pm 11.3 4.5 7.6 78 1.8 S 33 52 18 28 1026.6 1026.7 0.2
29/12:00pm 11.0 3.8 7.5 79 1.7 SSW 35 52 19 28 1026.6 1026.7 0.2
29/11:30am 10.6 3.3 7.3 80 1.6 SSW 35 50 19 27 1026.8 1026.9 0.2
29/11:02am 10.6 2.8 8.2 85 1.2 SSW 39 57 21 31 1026.8 1026.9 0.0
29/11:00am 10.7 3.7 8.3 85 1.2 SSW 35 48 19 26 1026.8 1026.9 0.0
29/10:36am 9.9 2.0 7.7 86 1.1 SSW 39 57 21 31 1026.8 1026.9 0.0
29/10:30am 9.6 2.0 7.4 86 1.0 SSW 37 52 20 28 1026.8 1026.9 0.0
29/10:10am 9.4 2.0 6.8 84 1.2 SSW 35 54 19 29 1026.7 1026.8 0.0
29/10:00am 9.7 1.6 6.8 82 1.4 SSW 39 52 21 28 1026.6 1026.7 0.0
29/09:30am 9.0 1.5 6.4 84 1.2 SSW 35 56 19 30 1026.9 1027.0 0.0
29/09:01am 9.0 1.9 6.4 84 1.2 SSW 33 54 18 29 1027.0 1027.1 0.0
29/09:00am 9.1 2.2 6.5 84 1.2 SSW 32 43 17 23 1027.0 1027.1 0.2
29/08:55am 8.9 2.1 6.7 86 1.0 SSW 32 50 17 27 1026.9 1027.0 0.2
29/08:30am 8.4 0.1 6.2 86 1.0 SSW 39 54 21 29 1027.0 1027.1 0.0
29/08:07am 8.4 0.9 6.2 86 1.0 SSW 35 57 19 31 1026.7 1026.8 0.0
29/08:00am 8.2 0.7 6.2 87 0.9 SSW 35 46 19 25 1026.7 1026.8 0.0
29/07:38am 8.4 2.0 5.3 81 1.4 S 28 46 15 25 1026.8 1026.9 0.0
29/07:30am 8.6 0.8 4.8 77 1.7 SSW 35 44 19 24 1026.6 1026.7 0.0
29/07:19am 8.2 0.4 5.0 80 1.4 SSW 35 54 19 29 1026.5 1026.6 0.0
29/07:00am 8.5 0.6 4.5 76 1.8 SSW 35 50 19 27 1026.4 1026.5 0.0
29/06:30am 8.6 0.3 4.0 73 2.0 SSW 37 50 20 27 1026.3 1026.4 0.0
29/06:00am 8.0 -0.1 3.3 72 2.0 SSW 35 56 19 30 1026.4 1026.5 0.0
29/05:32am 8.4 0.3 3.1 69 2.3 SSW 35 54 19 29 1026.3 1026.4 0.0
29/05:30am 8.5 0.7 3.1 69 2.3 SSW 33 50 18 27 1026.3 1026.4 0.0
29/05:00am 8.2 0.1 1.1 61 2.9 SSW 33 52 18 28 1026.4 1026.5 0.0
29/04:42am 8.2 1.2 2.2 66 2.5 SSW 28 46 15 25 1026.4 1026.5 0.0
29/04:30am 7.8 0.5 2.7 70 2.1 SSW 30 41 16 22 1026.4 1026.5 0.0
29/04:00am 7.4 0.6 3.1 74 1.8 SSW 28 39 15 21 1026.5 1026.6 0.0
29/03:30am 7.2 0.3 2.7 73 1.9 SSW 28 37 15 20 1026.6 1026.7 0.0
29/03:00am 7.5 0.1 1.8 67 2.3 SSW 30 44 16 24 1027.0 1027.1 0.0
29/02:30am 7.5 0.7 0.5 61 2.8 SSW 26 41 14 22 1027.4 1027.5 0.0
29/02:00am 7.3 0.0 -0.2 59 2.9 SSW 28 41 15 22 1027.6 1027.7 0.0
29/01:30am 7.3 1.9 1.0 64 2.5 S 19 30 10 16 1027.9 1028.0 0.0
29/01:00am 7.2 2.1 0.9 64 2.5 S 17 28 9 15 1028.1 1028.2 0.0
29/12:30am 5.8 1.4 0.2 67 2.2 S 13 19 7 10 1028.0 1028.1 0.0
29/12:00am 6.4 0.7 0.5 66 2.3 S 20 30 11 16 1028.4 1028.5 0.0
 
Date/Time
EST
Temp
°C
App
Temp
°C
Dew
Point
Rel
Hum
%
Delta-T
°C
Wind Press
QNH
hPa
Press
MSL
hPa
Rain
since 9 am
mm
Dir
 
Spd
km/h
Gust
km/h
Spd
kts
Gust
kts
28/11:30pm 6.1 1.9 1.8 74 1.7 S 13 20 7 11 1028.5 1028.6 0.0
28/11:00pm 6.1 1.7 0.6 68 2.1 S 13 19 7 10 1028.7 1028.8 0.0
28/10:30pm 6.7 0.4 -1.0 58 2.9 S 22 33 12 18 1028.5 1028.6 0.0
28/10:00pm 6.2 0.6 0.9 69 2.1 S 20 30 11 16 1028.3 1028.4 0.0
28/09:30pm 7.2 1.0 0.0 60 2.8 SSE 22 35 12 19 1028.2 1028.3 0.0
28/09:00pm 7.1 0.6 0.3 62 2.6 S 24 35 13 19 1028.1 1028.2 0.0

Other Formats:

Comma delimited format used in spreadsheet applications
http://www.bom.gov.au/fwo/IDT60801/IDT60801.94850.axf

JavaScript Object Notation format (JSON) in row-major order
http://www.bom.gov.au/fwo/IDT60801/IDT60801.94850.json